Time;durP1;ratioP1;P1;durP2;ratioP2;P2;SDS_P1;SDS_P2;PMS_P1;PMS_P2;Temp;Humidity;BMP_temperature;BMP_pressure;BME280_temperature;BME280_humidity;BME280_pressure;Samples;Min_cycle;Max_cycle;Signal;HPM_P1;HPM_P2
2023/01/16 00:01:58;;;;;;;25.83;16.25;;;;;;;6.89;73.87;99655.75;5094755;28;20058;-80
2023/01/16 00:04:23;;;;;;;26.00;17.30;;;;;;;7.31;73.86;99732.03;5094589;28;20032;-80
2023/01/16 00:06:49;;;;;;;28.85;16.67;;;;;;;6.80;73.79;99656.66;5093406;28;20024;-80
2023/01/16 00:09:14;;;;;;;27.02;17.85;;;;;;;6.67;73.73;99620.25;5094725;28;20028;-80
2023/01/16 00:11:40;;;;;;;25.15;18.13;;;;;;;6.72;73.57;99614.59;5093311;28;20024;-80
2023/01/16 00:14:06;;;;;;;27.10;17.95;;;;;;;6.94;73.42;99663.16;5093030;28;20020;-80
2023/01/16 00:16:31;;;;;;;26.70;18.20;;;;;;;7.32;73.92;99725.81;5094452;28;20027;-80
2023/01/16 00:18:57;;;;;;;26.75;18.45;;;;;;;6.67;74.15;99608.94;5094363;28;20576;-80
2023/01/16 00:21:26;;;;;;;27.83;19.00;;;;;;;7.34;73.55;99742.25;5094557;28;20028;-80
2023/01/16 00:23:56;;;;;;;24.85;17.60;;;;;;;7.14;73.82;99703.19;5092948;28;20107;-80
2023/01/16 00:26:23;;;;;;;24.15;17.23;;;;;;;7.26;74.13;99712.47;5094312;28;20020;-80
2023/01/16 00:28:49;;;;;;;25.58;18.50;;;;;;;7.03;73.80;99682.41;5094250;28;20027;-80
2023/01/16 00:31:15;;;;;;;28.00;19.08;;;;;;;6.89;74.15;99660.97;5094136;28;20584;-82
2023/01/16 00:33:42;;;;;;;29.42;19.90;;;;;;;7.35;73.71;99724.69;5094582;28;20051;-79
2023/01/16 00:36:08;;;;;;;31.83;20.85;;;;;;;7.18;73.61;99679.09;5094291;28;20020;-80
2023/01/16 00:38:33;;;;;;;31.90;21.08;;;;;;;6.70;73.03;99598.19;5094078;28;20023;-81
2023/01/16 00:40:59;;;;;;;36.63;22.58;;;;;;;7.26;73.43;99699.34;5092668;28;20045;-81
2023/01/16 00:43:24;;;;;;;34.05;22.40;;;;;;;7.14;73.87;99680.38;5094103;28;20050;-81
2023/01/16 00:45:49;;;;;;;34.72;25.33;;;;;;;6.88;73.40;99634.88;5094056;28;20024;-81
2023/01/16 00:48:15;;;;;;;38.05;24.38;;;;;;;7.29;73.54;99705.09;5093797;28;20024;-80
2023/01/16 00:50:41;;;;;;;37.72;25.98;;;;;;;6.79;73.56;99636.63;5093801;28;20382;-80
2023/01/16 00:53:06;;;;;;;40.67;25.13;;;;;;;6.57;73.66;99588.03;5093687;28;20024;-80
2023/01/16 00:55:36;;;;;;;38.50;25.05;;;;;;;6.69;73.01;99628.00;5094253;28;20020;-80
2023/01/16 00:58:03;;;;;;;39.63;25.60;;;;;;;7.22;72.91;99704.06;5093727;28;20024;-79
2023/01/16 01:00:29;;;;;;;42.38;24.30;;;;;;;7.33;73.52;99703.81;5093577;28;20412;-80
2023/01/16 01:02:54;;;;;;;34.75;24.10;;;;;;;7.04;73.30;99663.06;5093527;28;20024;-80
2023/01/16 01:05:20;;;;;;;40.10;25.77;;;;;;;7.21;72.91;99694.53;5093660;28;20024;-80
2023/01/16 01:07:45;;;;;;;37.05;24.52;;;;;;;6.30;73.38;99547.00;5093394;28;20103;-80
2023/01/16 01:10:11;;;;;;;38.42;24.27;;;;;;;6.62;73.27;99601.53;5093312;28;20477;-80
2023/01/16 01:12:36;;;;;;;38.13;24.92;;;;;;;7.10;73.23;99663.28;5092082;28;20020;-80
2023/01/16 01:15:03;;;;;;;33.15;20.35;;;;;;;7.11;73.39;99675.44;5093321;28;20050;-79
2023/01/16 01:17:28;;;;;;;36.13;23.35;;;;;;;6.89;73.52;99633.91;5091914;28;20061;-80
2023/01/16 01:19:53;;;;;;;38.58;24.33;;;;;;;6.72;73.45;99614.59;5093230;28;20044;-79
2023/01/16 01:22:19;;;;;;;36.17;22.02;;;;;;;6.48;73.44;99567.16;5093184;28;20504;-79
2023/01/16 01:24:48;;;;;;;32.58;20.88;;;;;;;6.38;73.42;99575.91;5092883;28;20020;-80
2023/01/16 01:27:13;;;;;;;33.47;21.83;;;;;;;6.84;73.48;99649.28;5093002;28;20382;-80
2023/01/16 01:29:39;;;;;;;36.20;23.10;;;;;;;6.27;73.29;99544.69;5092852;28;20023;-82
2023/01/16 01:32:05;;;;;;;34.42;24.02;;;;;;;6.91;73.23;99639.84;5092978;28;20035;-80
2023/01/16 01:34:33;;;;;;;37.60;22.75;;;;;;;6.28;73.82;99535.84;5092984;28;20021;-81
2023/01/16 01:37:00;;;;;;;36.03;24.80;;;;;;;6.44;73.66;99581.53;5093023;28;20120;-82
2023/01/16 01:39:25;;;;;;;38.20;25.13;;;;;;;6.64;73.44;99593.50;5092967;28;20488;-81
2023/01/16 01:41:51;;;;;;;34.90;23.30;;;;;;;6.58;72.98;99576.56;5092389;28;20116;-82
2023/01/16 01:44:52;;;;;;;38.42;25.55;;;;;;;7.12;73.69;99655.25;5106477;28;20028;-80
2023/01/16 01:47:23;;;;;;;36.25;22.65;;;;;;;7.10;73.24;99650.16;5092386;28;20409;-80
2023/01/16 01:49:50;;;;;;;33.38;22.13;;;;;;;6.69;73.65;99583.41;5092760;28;20024;-80
2023/01/16 01:52:17;;;;;;;33.97;22.75;;;;;;;7.05;73.29;99630.59;5092540;28;20419;-80
2023/01/16 01:54:48;;;;;;;34.13;22.50;;;;;;;6.68;72.86;99569.44;5092527;28;20020;-79
2023/01/16 01:57:26;;;;;;;27.50;19.60;;;;;;;6.97;73.59;99605.09;5092484;28;20103;-80
2023/01/16 02:00:00;;;;;;;26.35;18.30;;;;;;;6.50;73.13;99536.34;5091101;28;20024;-80
2023/01/16 02:02:31;;;;;;;24.65;17.25;;;;;;;6.59;72.96;99549.38;5092584;28;20515;-80
2023/01/16 02:04:57;;;;;;;22.73;16.42;;;;;;;6.72;73.15;99554.25;5092274;28;20020;-80
2023/01/16 02:07:24;;;;;;;21.63;15.38;;;;;;;6.43;72.79;99515.16;5092368;28;20024;-79
2023/01/16 02:09:56;;;;;;;21.77;16.90;;;;;;;6.56;72.58;99535.72;5092269;28;20023;-80
2023/01/16 02:12:21;;;;;;;18.73;14.10;;;;;;;7.12;72.99;99618.50;5092136;28;20099;-80
2023/01/16 02:14:48;;;;;;;18.70;14.00;;;;;;;6.86;73.05;99577.31;5090824;28;20016;-79
2023/01/16 02:20:08;;;;;;;17.42;13.45;;;;;;;7.13;72.46;99609.63;5092218;28;20105;-79
2023/01/16 02:22:56;;;;;;;16.77;13.40;;;;;;;7.11;72.55;99604.53;5090791;28;20418;-79
2023/01/16 02:25:36;;;;;;;16.77;12.77;;;;;;;7.10;72.38;99599.44;5090712;28;20128;-80
2023/01/16 02:28:19;;;;;;;16.38;13.00;;;;;;;7.08;72.74;99606.66;5092580;28;20028;-80
2023/01/16 02:30:50;;;;;;;16.65;12.57;;;;;;;7.06;72.65;99601.56;5092103;28;20042;-80
2023/01/16 02:33:21;;;;;;;16.47;12.80;;;;;;;7.05;72.50;99605.16;5091992;28;20404;-80
2023/01/16 02:36:13;;;;;;;19.80;13.70;;;;;;;5.97;72.54;99456.78;5091779;28;20031;-79
2023/01/16 02:39:06;;;;;;;18.77;14.40;;;;;;;6.96;72.65;99603.47;5091866;28;20043;-79
2023/01/16 02:41:41;;;;;;;20.23;13.65;;;;;;;6.95;72.81;99602.63;5091776;28;20477;-79
2023/01/16 02:44:29;;;;;;;17.80;12.30;;;;;;;6.93;72.60;99609.84;5091565;28;20086;-79
2023/01/16 02:47:26;;;;;;;17.00;12.68;;;;;;;6.89;72.34;99595.38;5091793;28;20028;-79
2023/01/16 02:50:13;;;;;;;18.27;12.95;;;;;;;6.87;73.00;99599.94;5086387;28;20428;-80
2023/01/16 02:53:14;;;;;;;14.77;12.20;;;;;;;6.86;72.39;99594.84;5091140;28;20020;-79
2023/01/16 02:55:46;;;;;;;19.80;13.02;;;;;;;6.84;73.04;99600.25;5091765;28;20020;-79
2023/01/16 02:58:14;;;;;;;18.00;13.00;;;;;;;6.88;73.12;99609.47;5090198;28;20103;-81
2023/01/16 03:00:52;;;;;;;16.55;12.93;;;;;;;6.78;72.72;99590.38;5091454;28;20024;-79
2023/01/16 03:03:28;;;;;;;16.55;12.70;;;;;;;6.77;72.49;99591.34;5091393;28;20028;-79
2023/01/16 03:06:05;;;;;;;17.30;13.30;;;;;;;6.84;73.17;99602.06;5091540;28;20486;-80
2023/01/16 03:09:01;;;;;;;17.00;13.73;;;;;;;6.82;72.90;99604.84;5091790;28;20028;-80
2023/01/16 03:11:30;;;;;;;17.20;13.32;;;;;;;6.18;73.25;99497.56;5090184;28;20032;-79
2023/01/16 03:14:07;;;;;;;17.60;13.35;;;;;;;6.34;72.50;99519.50;5091592;28;20111;-80
2023/01/16 03:16:51;;;;;;;16.75;12.55;;;;;;;6.85;72.46;99609.78;5090091;28;20035;-80
2023/01/16 03:19:53;;;;;;;18.45;13.07;;;;;;;6.86;72.50;99614.03;5089919;28;20054;-80
2023/01/16 03:22:33;;;;;;;16.33;12.05;;;;;;;6.87;72.86;99604.38;5091066;28;20051;-79
2023/01/16 03:25:24;;;;;;;15.27;12.15;;;;;;;6.83;72.88;99603.84;5091259;28;20036;-79
2023/01/16 03:28:13;;;;;;;14.68;11.77;;;;;;;6.80;72.84;99609.41;5091004;28;20444;-80
2023/01/16 03:30:54;;;;;;;15.45;12.23;;;;;;;6.78;72.44;99594.78;5089857;28;20039;-80
2023/01/16 03:33:33;;;;;;;14.70;11.70;;;;;;;6.02;72.83;99487.78;5089795;28;20024;-79
2023/01/16 03:36:05;;;;;;;15.00;11.68;;;;;;;6.22;73.15;99512.84;5089771;28;20031;-80
2023/01/16 03:38:34;;;;;;;19.25;12.85;;;;;;;6.65;73.03;99579.41;5091024;28;20466;-80
2023/01/16 03:41:03;;;;;;;15.43;12.98;;;;;;;6.20;73.33;99506.94;5089809;28;20035;-80
2023/01/16 03:43:37;;;;;;;15.20;12.55;;;;;;;6.34;72.89;99530.00;5091071;28;20035;-80
2023/01/16 03:46:17;;;;;;;15.95;12.68;;;;;;;6.11;73.02;99489.50;5091151;28;20498;-79
2023/01/16 03:49:09;;;;;;;14.60;11.82;;;;;;;5.77;72.62;99429.03;5091087;28;20028;-80
2023/01/16 03:51:40;;;;;;;14.52;12.02;;;;;;;6.47;73.11;99561.06;5091203;28;20492;-79
2023/01/16 03:54:30;;;;;;;16.42;13.05;;;;;;;6.51;72.93;99558.97;5089682;28;20028;-79
2023/01/16 03:57:28;;;;;;;18.60;12.82;;;;;;;5.96;73.45;99470.84;5090997;28;20034;-80
2023/01/16 03:59:54;;;;;;;17.08;13.45;;;;;;;6.16;73.15;99510.81;5090503;28;20040;-80
2023/01/16 04:02:34;;;;;;;16.73;13.05;;;;;;;6.46;72.86;99564.66;5089677;28;20082;-80
2023/01/16 04:04:59;;;;;;;17.27;13.43;;;;;;;6.43;72.96;99559.72;5091921;28;20028;-80
2023/01/16 04:07:35;;;;;;;16.42;13.30;;;;;;;5.67;73.01;99447.44;5094638;28;20020;-80
2023/01/16 04:10:05;;;;;;;15.88;13.18;;;;;;;6.40;73.04;99556.59;5094651;28;20024;-80
2023/01/16 04:12:43;;;;;;;18.35;13.32;;;;;;;6.22;73.17;99544.31;5094525;28;20106;-81
2023/01/16 04:15:10;;;;;;;16.83;13.63;;;;;;;6.27;73.61;99567.44;5094735;28;20039;-80
2023/01/16 04:17:37;;;;;;;18.77;13.73;;;;;;;5.91;73.57;99498.44;5093120;28;20035;-79
2023/01/16 04:20:03;;;;;;;16.30;13.02;;;;;;;5.99;73.17;99519.53;5094254;28;20527;-79
2023/01/16 04:22:29;;;;;;;18.70;13.40;;;;;;;5.90;73.31;99508.09;5093061;28;20028;-79
2023/01/16 04:25:01;;;;;;;17.95;14.23;;;;;;;6.30;73.50;99565.34;5094098;28;20415;-80
2023/01/16 04:27:27;;;;;;;20.35;14.02;;;;;;;5.87;73.19;99512.78;5092863;28;20031;-80
2023/01/16 04:29:52;;;;;;;22.23;16.65;;;;;;;6.03;73.24;99524.31;5094337;28;20024;-80
2023/01/16 04:32:18;;;;;;;19.52;16.02;;;;;;;5.76;73.39;99474.53;5092866;28;20067;-80
2023/01/16 04:34:44;;;;;;;27.10;18.55;;;;;;;5.95;72.70;99520.78;5094239;28;20030;-80
2023/01/16 04:37:13;;;;;;;23.83;18.15;;;;;;;6.18;72.86;99542.97;5092914;28;20024;-80
2023/01/16 04:39:40;;;;;;;18.35;14.80;;;;;;;5.63;72.96;99464.41;5092574;28;20043;-79
2023/01/16 04:42:06;;;;;;;18.35;13.73;;;;;;;5.69;72.83;99482.16;5094050;28;20488;-80
2023/01/16 04:44:31;;;;;;;19.33;13.43;;;;;;;5.92;73.39;99513.19;5093852;28;20031;-80
2023/01/16 04:46:56;;;;;;;16.52;14.32;;;;;;;5.52;73.25;99443.69;5093879;28;20036;-80
2023/01/16 04:49:22;;;;;;;17.83;14.48;;;;;;;5.73;73.29;99486.13;5092492;28;20083;-80
2023/01/16 04:51:47;;;;;;;18.75;14.55;;;;;;;5.95;73.48;99524.22;5093824;28;20050;-79
2023/01/16 04:54:15;;;;;;;18.63;14.77;;;;;;;5.70;73.09;99483.81;5092445;28;20040;-79
2023/01/16 04:56:41;;;;;;;18.55;13.93;;;;;;;5.46;73.01;99430.34;5092465;28;20082;-79
2023/01/16 04:59:08;;;;;;;19.35;14.77;;;;;;;6.10;73.01;99540.25;5093713;28;20016;-80
2023/01/16 05:01:34;;;;;;;19.70;15.32;;;;;;;6.00;72.91;99522.00;5092423;28;20047;-79
2023/01/16 05:04:05;;;;;;;21.25;16.33;;;;;;;6.04;73.24;99544.31;5092222;28;20031;-79
2023/01/16 05:06:31;;;;;;;19.38;14.50;;;;;;;6.12;73.21;99540.94;5092325;28;20035;-80
2023/01/16 05:08:56;;;;;;;18.00;14.98;;;;;;;5.69;72.88;99473.47;5092027;28;20055;-79
2023/01/16 05:11:22;;;;;;;18.67;14.25;;;;;;;5.78;72.80;99488.31;5093273;28;20120;-80
2023/01/16 05:13:47;;;;;;;17.25;12.77;;;;;;;5.72;73.03;99481.03;5092120;28;20054;-80
2023/01/16 05:16:12;;;;;;;18.98;14.57;;;;;;;5.05;73.06;99378.38;5092422;28;20103;-79
2023/01/16 05:18:38;;;;;;;23.30;17.30;;;;;;;5.59;73.23;99470.91;5093291;28;20499;-80
2023/01/16 05:21:04;;;;;;;24.02;17.10;;;;;;;5.31;73.24;99435.28;5093363;28;20063;-79
2023/01/16 05:23:32;;;;;;;24.20;17.83;;;;;;;5.94;73.11;99543.53;5093399;28;20111;-80
2023/01/16 05:25:58;;;;;;;24.55;18.30;;;;;;;5.77;73.43;99512.03;5091873;28;20475;-80
2023/01/16 05:28:24;;;;;;;23.55;18.65;;;;;;;5.28;72.94;99432.94;5091847;28;20107;-79
2023/01/16 05:30:50;;;;;;;25.73;19.80;;;;;;;5.69;73.38;99489.19;5091812;28;20016;-80
2023/01/16 05:33:15;;;;;;;23.90;19.55;;;;;;;5.49;73.15;99459.69;5093114;28;20145;-80
2023/01/16 05:35:41;;;;;;;21.63;17.52;;;;;;;5.27;73.20;99426.91;5093241;28;20031;-80
2023/01/16 05:38:06;;;;;;;18.90;15.63;;;;;;;5.56;72.97;99467.78;5092862;28;20485;-80
2023/01/16 05:40:32;;;;;;;20.52;16.15;;;;;;;5.43;73.19;99455.03;5092726;28;20039;-79
2023/01/16 05:42:57;;;;;;;18.30;14.57;;;;;;;5.86;73.11;99525.06;5092513;28;20032;-80
2023/01/16 05:45:22;;;;;;;19.65;15.10;;;;;;;5.24;72.65;99421.13;5091316;28;20028;-80
2023/01/16 05:47:48;;;;;;;18.40;14.73;;;;;;;5.22;72.79;99417.84;5092614;28;20063;-80
2023/01/16 05:50:14;;;;;;;19.83;15.57;;;;;;;5.60;72.95;99480.44;5092608;28;20032;-79
2023/01/16 05:52:39;;;;;;;22.55;16.88;;;;;;;5.03;72.77;99397.81;5092531;28;20109;-80
2023/01/16 05:55:05;;;;;;;21.27;16.15;;;;;;;5.43;73.14;99462.91;5092658;28;20089;-80
2023/01/16 05:57:30;;;;;;;24.05;19.10;;;;;;;5.74;73.07;99486.94;5092739;28;20020;-79
2023/01/16 05:59:56;;;;;;;23.60;19.83;;;;;;;5.36;72.56;99433.03;5091119;28;20537;-80
2023/01/16 06:02:21;;;;;;;23.00;18.13;;;;;;;5.19;72.51;99391.91;5092488;28;20120;-79
2023/01/16 06:04:47;;;;;;;22.40;18.25;;;;;;;5.40;72.92;99423.91;5092267;28;20031;-80
2023/01/16 06:07:13;;;;;;;23.63;18.70;;;;;;;5.37;72.24;99403.28;5092287;28;20020;-80
2023/01/16 06:09:39;;;;;;;25.13;19.45;;;;;;;5.55;72.57;99445.19;5092262;28;20111;-79
2023/01/16 06:12:07;;;;;;;20.02;16.85;;;;;;;6.09;72.34;99504.53;5091025;28;20028;-81
2023/01/16 06:14:33;;;;;;;21.17;15.95;;;;;;;5.99;72.23;99485.44;5092290;28;20012;-79
2023/01/16 06:16:58;;;;;;;19.60;16.40;;;;;;;5.99;72.39;99483.66;5090935;28;20115;-79
2023/01/16 06:19:24;;;;;;;19.75;15.93;;;;;;;5.26;72.71;99367.66;5092124;28;20496;-80
2023/01/16 06:21:49;;;;;;;19.95;16.45;;;;;;;5.54;72.82;99446.97;5092137;28;20024;-80
2023/01/16 06:24:15;;;;;;;23.92;17.95;;;;;;;5.31;72.90;99430.03;5090908;28;20036;-80
2023/01/16 06:26:40;;;;;;;37.40;29.10;;;;;;;5.97;72.95;99514.44;5091948;28;20119;-79
2023/01/16 06:29:05;;;;;;;40.95;30.50;;;;;;;5.68;72.20;99453.50;5091262;28;20084;-80
2023/01/16 06:31:31;;;;;;;41.40;31.48;;;;;;;5.07;71.96;99345.03;5089067;28;20051;-81
2023/01/16 06:33:56;;;;;;;40.30;31.15;;;;;;;6.04;72.12;99505.00;5086836;28;20015;-80
2023/01/16 06:36:22;;;;;;;46.55;33.95;;;;;;;5.91;71.62;99474.84;5089841;28;20024;-80
2023/01/16 06:38:47;;;;;;;50.60;37.28;;;;;;;6.08;72.02;99520.41;5088456;28;20035;-79
2023/01/16 06:41:12;;;;;;;45.13;32.50;;;;;;;5.09;71.77;99348.31;5088083;28;20032;-80
2023/01/16 06:43:38;;;;;;;44.30;31.88;;;;;;;5.26;72.04;99391.22;5088544;28;20039;-81
2023/01/16 06:46:03;;;;;;;45.22;29.75;;;;;;;6.07;71.80;99516.16;5088913;28;20027;-81
2023/01/16 06:48:29;;;;;;;65.93;40.10;;;;;;;6.02;71.91;99506.94;5092108;28;20016;-81
2023/01/16 06:50:54;;;;;;;66.25;42.70;;;;;;;5.26;71.96;99406.09;5090604;28;20416;-80
2023/01/16 06:53:20;;;;;;;65.28;37.30;;;;;;;5.86;72.32;99500.66;5088849;28;20051;-79
2023/01/16 06:55:46;;;;;;;50.13;31.75;;;;;;;5.77;72.51;99504.16;5091907;28;20054;-80
2023/01/16 06:58:11;;;;;;;68.82;35.03;;;;;;;5.62;72.44;99483.72;5086963;28;20054;-80
2023/01/16 07:00:37;;;;;;;64.00;31.63;;;;;;;4.09;72.57;99237.66;5089038;28;20132;-81
2023/01/16 07:03:04;;;;;;;57.13;30.83;;;;;;;5.77;72.89;99494.50;5091304;28;20019;-80
2023/01/16 07:05:30;;;;;;;68.30;34.33;;;;;;;5.80;72.87;99493.38;5082552;28;20024;-80
2023/01/16 07:07:57;;;;;;;66.25;37.67;;;;;;;5.80;73.00;99488.16;5084413;28;20028;-80
2023/01/16 07:10:23;;;;;;;63.53;35.10;;;;;;;5.10;72.35;99368.28;5087591;28;20031;-80
2023/01/16 07:12:51;;;;;;;61.67;34.75;;;;;;;5.81;72.54;99489.78;5070443;28;20032;-80
2023/01/16 07:23:39;;;;;;;42.88;26.33;;;;;;;5.48;71.73;99444.13;5088178;28;20039;-80
2023/01/16 07:26:07;;;;;;;57.60;34.90;;;;;;;5.32;72.28;99405.50;5088007;28;20064;-81
2023/01/16 07:28:33;;;;;;;64.05;37.53;;;;;;;5.52;71.92;99429.75;5085470;28;20107;-80
2023/01/16 07:31:03;;;;;;;71.97;37.60;;;;;;;5.28;72.00;99394.50;5087781;28;20067;-80
2023/01/16 07:33:28;;;;;;;59.55;34.60;;;;;;;5.29;71.99;99411.03;5091177;28;20020;-81
2023/01/16 07:35:54;;;;;;;59.97;35.22;;;;;;;5.69;72.26;99431.56;5091073;28;20565;-80
2023/01/16 07:38:19;;;;;;;55.53;32.15;;;;;;;5.86;71.59;99471.84;5091137;28;20082;-80
2023/01/16 07:40:44;;;;;;;50.03;32.58;;;;;;;5.90;71.97;99453.06;5092148;28;20031;-80
2023/01/16 07:43:10;;;;;;;51.58;32.47;;;;;;;5.40;72.14;99350.63;5094810;28;20469;-81
2023/01/16 07:45:35;;;;;;;50.58;31.15;;;;;;;5.64;72.18;99387.50;5094016;28;20036;-80
2023/01/16 07:48:01;;;;;;;38.38;28.30;;;;;;;5.79;71.88;99392.19;5093430;28;20122;-80
2023/01/16 07:50:27;;;;;;;27.13;20.67;;;;;;;5.63;72.08;99371.94;5092620;28;20050;-80
2023/01/16 07:52:52;;;;;;;25.20;18.23;;;;;;;5.92;72.19;99396.09;5094602;28;20473;-80
2023/01/16 07:55:18;;;;;;;26.85;19.17;;;;;;;6.23;72.42;99442.88;5091790;28;20036;-80
2023/01/16 07:57:43;;;;;;;27.13;18.00;;;;;;;5.54;72.17;99305.56;5093743;28;20028;-80
2023/01/16 08:00:11;;;;;;;23.08;17.50;;;;;;;6.00;71.72;99353.44;5092685;28;20031;-80
2023/01/16 08:02:37;;;;;;;17.75;13.93;;;;;;;6.19;71.77;99370.75;5093554;28;20477;-80
2023/01/16 08:05:03;;;;;;;26.80;19.80;;;;;;;6.73;71.77;99429.13;5093491;28;20024;-79
2023/01/16 08:07:28;;;;;;;29.85;21.15;;;;;;;6.32;71.24;99353.63;5092971;28;20035;-79
2023/01/16 08:09:54;;;;;;;30.77;23.05;;;;;;;6.79;71.07;99431.13;5091135;28;20435;-80
2023/01/16 08:12:20;;;;;;;17.77;15.23;;;;;;;6.83;71.07;99409.66;5092067;28;20077;-79
2023/01/16 08:14:45;;;;;;;25.58;18.90;;;;;;;6.37;71.46;99333.03;5093924;28;20028;-80
2023/01/16 08:17:10;;;;;;;19.85;15.82;;;;;;;6.62;71.09;99367.22;5093249;28;20511;-80
2023/01/16 08:19:36;;;;;;;21.13;15.55;;;;;;;6.22;70.93;99310.97;5093242;28;20056;-79
2023/01/16 08:22:02;;;;;;;20.33;15.23;;;;;;;6.37;70.89;99308.59;5091649;28;20036;-79
2023/01/16 08:24:30;;;;;;;15.82;12.45;;;;;;;6.79;70.72;99379.47;5092207;28;20034;-79
2023/01/16 08:26:56;;;;;;;19.98;13.70;;;;;;;7.00;70.94;99395.63;5089124;28;20096;-83
2023/01/16 08:29:22;;;;;;;16.10;12.38;;;;;;;7.04;71.11;99395.31;5090377;28;20028;-79
2023/01/16 08:31:48;;;;;;;16.70;12.85;;;;;;;6.68;71.03;99348.25;5092212;28;20039;-80
2023/01/16 08:34:13;;;;;;;15.13;12.48;;;;;;;7.14;70.36;99396.00;5093869;28;20508;-80
2023/01/16 08:36:39;;;;;;;13.77;10.50;;;;;;;6.87;70.51;99347.19;5093764;28;20024;-79
2023/01/16 08:39:04;;;;;;;13.05;10.93;;;;;;;6.96;70.69;99338.34;5093818;28;20055;-80
2023/01/16 08:52:33;;;;;;;15.73;11.73;;;;;;;6.59;70.89;99287.06;5085892;28;20433;-79
2023/01/16 08:54:59;;;;;;;15.75;12.15;;;;;;;6.92;71.18;99326.53;5092825;28;20028;-79
2023/01/16 08:57:27;;;;;;;16.10;12.75;;;;;;;7.21;71.10;99358.44;5085360;28;20024;-79
2023/01/16 08:59:53;;;;;;;16.15;12.13;;;;;;;6.52;70.95;99228.34;5087893;28;20028;-79
2023/01/16 09:02:19;;;;;;;17.65;13.35;;;;;;;7.22;70.87;99340.88;5092672;28;20508;-80
2023/01/16 09:04:45;;;;;;;16.70;13.15;;;;;;;6.93;71.09;99289.63;5093498;28;20504;-81
2023/01/16 09:07:11;;;;;;;16.70;13.02;;;;;;;7.40;70.58;99351.25;5089992;28;20035;-80
2023/01/16 09:09:36;;;;;;;15.38;11.63;;;;;;;7.42;71.13;99351.91;5090292;28;20032;-79
2023/01/16 09:14:46;;;;;;;14.52;11.80;;;;;;;7.12;70.50;99287.69;5083213;28;20113;-80
2023/01/16 09:17:12;;;;;;;18.10;14.45;;;;;;;7.09;70.69;99273.09;5092994;28;20073;-80
2023/01/16 09:19:37;;;;;;;25.67;19.80;;;;;;;7.18;70.54;99277.38;5088354;28;20047;-81
2023/01/16 09:22:07;;;;;;;16.38;13.32;;;;;;;7.12;70.63;99262.25;5089987;28;20523;-80
2023/01/16 09:24:34;;;;;;;14.13;11.70;;;;;;;7.50;71.08;99328.28;5084772;28;20093;-80
2023/01/16 09:27:01;;;;;;;12.77;10.77;;;;;;;7.65;70.95;99319.59;5090893;28;20024;-80
2023/01/16 09:29:27;;;;;;;13.43;10.77;;;;;;;7.43;70.49;99267.72;5092568;28;20484;-81
2023/01/16 09:31:53;;;;;;;10.48;9.27;;;;;;;7.73;70.22;99289.03;5092793;28;20170;-80
2023/01/16 09:34:18;;;;;;;15.40;11.45;;;;;;;7.53;70.54;99244.72;5091404;28;20016;-80
2023/01/16 09:36:44;;;;;;;11.43;9.30;;;;;;;7.56;70.27;99249.66;5090664;28;20050;-80
2023/01/16 09:39:09;;;;;;;12.27;9.63;;;;;;;7.71;70.09;99262.94;5089769;28;20039;-80
2023/01/16 09:44:32;;;;;;;14.88;11.02;;;;;;;7.11;70.08;99160.03;5091076;28;20031;-80
2023/01/16 09:47:00;;;;;;;13.90;11.15;;;;;;;7.24;69.67;99153.31;5088963;28;20024;-80
2023/01/16 09:49:36;;;;;;;15.05;10.68;;;;;;;7.57;69.22;99172.47;5080085;28;20497;-80
2023/01/16 10:00:29;;;;;;;17.02;15.23;;;;;;;8.17;68.99;99179.81;5086205;28;20111;-79
2023/01/16 10:02:55;;;;;;;17.15;10.68;;;;;;;8.50;69.06;99212.09;5090968;28;20040;-80
2023/01/16 10:05:24;;;;;;;11.73;9.35;;;;;;;8.72;68.49;99225.47;5089446;28;20086;-79
2023/01/16 10:07:58;;;;;;;9.95;8.95;;;;;;;8.86;68.76;99237.88;5096132;28;20075;-79
2023/01/16 10:10:27;;;;;;;14.32;11.63;;;;;;;8.93;69.04;99233.59;5098718;28;20510;-79
2023/01/16 10:13:18;;;;;;;12.82;10.85;;;;;;;8.80;68.94;99185.94;5088230;28;20101;-79
2023/01/16 10:15:53;;;;;;;12.15;9.85;;;;;;;9.28;68.66;99219.00;5081591;28;20039;-79
2023/01/16 10:18:39;;;;;;;18.77;14.90;;;;;;;9.39;67.85;99215.94;5085604;28;20110;-80
2023/01/16 10:21:23;;;;;;;14.75;12.27;;;;;;;9.37;68.16;99203.94;5085920;28;20126;-80
2023/01/16 10:24:00;;;;;;;13.05;11.13;;;;;;;9.28;67.83;99163.66;5089078;28;20028;-80
2023/01/16 10:26:43;;;;;;;12.95;10.35;;;;;;;9.51;68.12;99201.31;5087136;28;20032;-79
2023/01/16 10:29:33;;;;;;;14.25;12.75;;;;;;;9.47;67.50;99204.50;5090600;28;20496;-80
2023/01/16 10:32:08;;;;;;;14.95;12.50;;;;;;;9.43;67.34;99205.84;5091826;28;20024;-79
2023/01/16 10:34:51;;;;;;;16.63;13.23;;;;;;;9.36;67.34;99195.22;5090493;28;20024;-79
2023/01/16 10:37:16;;;;;;;;;;;;;;;9.27;68.22;99190.19;5090646;28;20039;-80
2023/01/16 10:39:42;;;;;;;12.73;11.40;;;;;;;8.82;67.66;99116.31;5091822;28;19908;-80
2023/01/16 10:50:56;;;;;;;19.25;15.40;;;;;;;9.02;67.80;99105.31;5085461;28;20584;-79
2023/01/16 10:53:22;;;;;;;18.75;13.88;;;;;;;9.07;67.81;99110.88;5089925;28;20039;-79
2023/01/16 10:55:51;;;;;;;18.65;15.30;;;;;;;9.35;67.57;99154.06;5091692;28;20062;-79
2023/01/16 10:58:39;;;;;;;23.65;17.23;;;;;;;9.38;68.33;99166.03;5091093;28;20467;-80
2023/01/16 11:01:13;;;;;;;19.23;16.38;;;;;;;9.29;68.26;99164.50;5089169;28;20031;-79
2023/01/16 11:03:47;;;;;;;21.88;16.83;;;;;;;9.16;68.46;99163.28;5087948;28;20093;-80
2023/01/16 11:06:23;;;;;;;22.52;17.05;;;;;;;9.13;68.75;99157.56;5089278;28;20040;-80
2023/01/16 11:09:00;;;;;;;22.17;15.90;;;;;;;8.65;68.56;99098.19;5087681;28;20465;-82
2023/01/16 11:20:35;;;;;;;25.30;18.02;;;;;;;8.95;69.35;99151.78;5090705;28;20093;-83
2023/01/16 11:23:16;;;;;;;23.25;17.60;;;;;;;8.96;69.14;99148.16;5095073;28;20103;-79
2023/01/16 11:25:44;;;;;;;27.92;21.05;;;;;;;8.65;69.02;99096.38;5095089;28;20023;-80
2023/01/16 11:28:16;;;;;;;25.65;17.90;;;;;;;8.45;68.79;99075.00;5094616;28;20081;-78
2023/01/16 11:30:45;;;;;;;24.48;18.23;;;;;;;8.77;69.12;99134.44;5095538;28;20051;-77
2023/01/16 11:33:19;;;;;;;22.48;16.55;;;;;;;8.86;68.95;99151.00;5090903;28;20024;-79
2023/01/16 11:35:53;;;;;;;20.85;16.27;;;;;;;8.82;69.16;99132.09;5094961;28;20512;-80
2023/01/16 11:38:19;;;;;;;20.75;16.40;;;;;;;8.75;68.80;99130.34;5091993;28;20493;-81
2023/01/16 11:40:46;;;;;;;25.60;19.98;;;;;;;7.80;69.16;98995.69;5092361;28;20024;-80
2023/01/16 11:46:19;;;;;;;25.45;19.08;;;;;;;8.55;69.63;99145.81;5092098;28;20177;-79
2023/01/16 11:48:46;;;;;;;29.15;21.90;;;;;;;8.52;69.52;99139.06;5094764;28;20589;-78
2023/01/16 11:51:19;;;;;;;26.30;18.50;;;;;;;8.54;69.40;99131.00;5093585;28;20416;-79
2023/01/16 11:53:46;;;;;;;24.67;19.88;;;;;;;8.50;69.85;99122.63;5094530;28;20469;-80
2023/01/16 11:56:41;;;;;;;27.95;20.05;;;;;;;8.51;69.44;99124.28;5093728;28;20035;-79
2023/01/16 11:59:20;;;;;;;25.08;18.98;;;;;;;8.45;69.62;99124.16;5084251;28;20039;-81
2023/01/16 12:02:20;;;;;;;23.17;19.45;;;;;;;8.45;69.67;99121.53;5091375;28;20039;-79
2023/01/16 12:08:05;;;;;;;28.35;20.35;;;;;;;8.35;69.73;99071.78;5090403;28;20050;-78
2023/01/16 12:10:52;;;;;;;26.17;20.40;;;;;;;8.58;69.47;99087.56;5094081;28;20016;-78
2023/01/16 12:16:29;;;;;;;27.23;19.80;;;;;;;8.59;69.44;99086.56;5094361;28;20035;-79
2023/01/16 12:19:03;;;;;;;28.38;20.80;;;;;;;8.63;69.32;99073.88;5093906;28;20560;-78
2023/01/16 12:21:40;;;;;;;30.50;22.20;;;;;;;8.53;69.51;99074.13;5092439;28;20032;-78
2023/01/16 12:24:28;;;;;;;28.20;20.75;;;;;;;7.86;70.41;98994.97;5093054;28;20542;-77
2023/01/16 12:27:38;;;;;;;28.73;20.60;;;;;;;8.46;69.92;99081.06;5091697;28;20107;-77
2023/01/16 12:30:16;;;;;;;31.65;21.73;;;;;;;8.51;69.94;99084.81;5072331;28;20031;-79
2023/01/16 12:32:51;;;;;;;26.33;19.70;;;;;;;8.55;69.70;99072.94;5084357;28;20097;-78
2023/01/16 12:35:40;;;;;;;26.83;20.90;;;;;;;8.20;69.78;99008.56;5086111;28;20115;-77
2023/01/16 12:38:12;;;;;;;26.52;18.80;;;;;;;8.32;70.00;99026.56;5089478;28;20023;-77
2023/01/16 12:44:28;;;;;;;31.85;22.45;;;;;;;7.93;69.82;98967.00;5050228;28;20048;-79
2023/01/16 12:47:23;;;;;;;30.67;21.15;;;;;;;8.56;69.80;99060.59;5048588;28;20376;-78
2023/01/16 12:49:54;;;;;;;30.90;22.05;;;;;;;8.56;70.06;99064.06;5059242;28;20115;-79